createdAt,value
2023-04-26T00:01:18.922Z,62.55
2023-04-26T00:06:17.703Z,62.55
2023-04-26T00:11:16.436Z,61.65
2023-04-26T00:16:15.502Z,62.55
2023-04-26T00:21:14.365Z,62.20
2023-04-26T00:26:13.200Z,62.60
2023-04-26T00:31:18.836Z,63.37
2023-04-26T00:36:19.394Z,63.03
2023-04-26T00:41:18.602Z,63.16
2023-04-26T00:46:17.493Z,63.35
2023-04-26T00:51:16.900Z,64.10
2023-04-26T00:56:16.857Z,64.45
2023-04-26T01:01:17.561Z,64.77
2023-04-26T01:06:17.932Z,64.75
2023-04-26T01:11:19.563Z,65.35
2023-04-26T01:16:20.015Z,65.37
2023-04-26T01:21:22.810Z,65.36
2023-04-26T01:26:21.841Z,65.70
2023-04-26T01:31:21.340Z,65.70
2023-04-26T01:36:20.182Z,65.43
2023-04-26T01:41:18.981Z,65.34
2023-04-26T01:46:17.869Z,64.91
2023-04-26T01:51:16.876Z,65.10
2023-04-26T01:56:16.216Z,65.51
2023-04-26T02:01:15.016Z,65.71
2023-04-26T02:06:16.848Z,65.26
2023-04-26T02:11:16.577Z,65.51
2023-04-26T02:16:17.025Z,65.38
2023-04-26T02:21:20.700Z,64.62
2023-04-26T02:26:19.445Z,65.04
2023-04-26T02:31:18.257Z,65.60
2023-04-26T02:36:17.311Z,65.32
2023-04-26T02:41:16.115Z,66.19
2023-04-26T02:46:17.260Z,66.70
2023-04-26T02:51:16.322Z,67.56
2023-04-26T02:56:15.209Z,67.54
2023-04-26T03:01:14.930Z,67.28
2023-04-26T03:06:14.483Z,67.79
2023-04-26T03:11:13.559Z,67.34
2023-04-26T03:16:12.464Z,67.66
2023-04-26T03:21:12.091Z,67.23
2023-04-26T03:26:11.188Z,67.63
2023-04-26T03:31:09.990Z,67.97
2023-04-26T03:36:09.412Z,68.14
2023-04-26T03:41:08.435Z,68.01
2023-04-26T03:46:07.388Z,67.54
2023-04-26T03:51:07.078Z,67.60
2023-04-26T03:56:06.216Z,66.94
2023-04-26T04:01:05.893Z,66.61
2023-04-26T04:06:05.152Z,66.42
2023-04-26T04:11:03.967Z,66.72
2023-04-26T04:16:05.442Z,66.46
2023-04-26T04:21:04.327Z,66.43
2023-04-26T04:26:03.409Z,65.89
2023-04-26T04:31:02.600Z,65.44
2023-04-26T04:36:01.675Z,66.16
2023-04-26T04:41:00.603Z,66.37
2023-04-26T04:45:59.458Z,71.61
2023-04-26T04:50:58.444Z,60.41
2023-04-26T04:55:58.126Z,58.66
2023-04-26T05:00:57.047Z,58.07
2023-04-26T05:06:01.425Z,57.86
2023-04-26T05:11:01.112Z,70.88
2023-04-26T05:16:00.568Z,54.85
2023-04-26T05:20:59.586Z,58.17
2023-04-26T05:26:02.351Z,59.56
2023-04-26T05:31:30.210Z,60.83
2023-04-26T05:36:49.475Z,61.44
2023-04-26T05:41:48.420Z,60.55
2023-04-26T05:46:47.630Z,60.53
2023-04-26T05:51:46.782Z,60.16
2023-04-26T05:56:46.000Z,61.06
2023-04-26T06:01:44.910Z,61.98
2023-04-26T06:06:43.761Z,61.62
2023-04-26T06:11:42.571Z,62.54
2023-04-26T06:16:43.752Z,61.30
2023-04-26T06:21:42.760Z,61.81
2023-04-26T06:26:41.743Z,59.60
2023-04-26T06:31:40.972Z,59.02
2023-04-26T06:36:40.640Z,60.37
2023-04-26T06:41:39.802Z,59.82
2023-04-26T06:46:42.101Z,59.17
2023-04-26T06:51:41.249Z,57.09
2023-04-26T06:56:40.033Z,58.15
2023-04-26T07:01:39.272Z,57.20
2023-04-26T07:06:39.552Z,57.47
2023-04-26T07:11:38.441Z,56.65
2023-04-26T07:16:37.416Z,57.16
2023-04-26T07:21:36.247Z,56.26
2023-04-26T07:26:37.011Z,55.10
2023-04-26T07:31:35.998Z,53.83
2023-04-26T07:36:34.750Z,53.49
2023-04-26T07:41:33.899Z,50.60
2023-04-26T07:46:36.064Z,53.49
2023-04-26T07:51:36.520Z,51.46
2023-04-26T07:56:35.354Z,49.61
2023-04-26T08:01:34.403Z,48.94
2023-04-26T08:06:33.325Z,48.94
2023-04-26T08:11:32.829Z,47.15
2023-04-26T08:16:32.053Z,46.57
2023-04-26T08:21:31.811Z,48.46
2023-04-26T08:26:30.735Z,48.76
2023-04-26T08:31:29.523Z,49.90
2023-04-26T08:36:28.456Z,48.22
2023-04-26T08:41:27.709Z,46.68
2023-04-26T08:46:28.662Z,44.79
2023-04-26T08:51:27.922Z,46.25
2023-04-26T08:56:29.957Z,46.50
2023-04-26T09:01:30.869Z,46.81
2023-04-26T09:06:29.926Z,45.18
2023-04-26T09:11:29.584Z,46.60
2023-04-26T09:16:37.764Z,45.02
2023-04-26T09:21:44.644Z,43.02
2023-04-26T09:26:43.494Z,46.24
2023-04-26T09:31:49.609Z,44.96
2023-04-26T09:36:58.581Z,43.75
2023-04-26T09:41:57.937Z,43.67
2023-04-26T09:47:10.126Z,45.51
2023-04-26T09:52:09.189Z,46.67
2023-04-26T09:57:08.139Z,47.23
2023-04-26T10:02:27.500Z,45.64
2023-04-26T10:07:26.626Z,43.05
2023-04-26T10:12:25.360Z,42.76
2023-04-26T10:17:24.359Z,43.61
2023-04-26T10:22:31.219Z,42.73
2023-04-26T10:27:45.419Z,42.09
2023-04-26T10:32:53.593Z,42.82
2023-04-26T10:38:02.331Z,42.79
2023-04-26T10:43:16.448Z,41.75
2023-04-26T10:48:19.508Z,42.56
2023-04-26T10:53:18.389Z,43.11
2023-04-26T10:58:31.550Z,43.11
2023-04-26T11:03:31.413Z,41.21
2023-04-26T11:08:35.746Z,40.57
2023-04-26T11:13:44.417Z,41.02
2023-04-26T11:18:46.968Z,39.36
2023-04-26T11:23:55.528Z,40.43
2023-04-26T11:28:54.817Z,40.99
2023-04-26T11:33:53.805Z,41.00
2023-04-26T11:38:54.274Z,39.96
2023-04-26T11:43:53.449Z,37.10
2023-04-26T11:48:53.124Z,36.24
2023-04-26T11:53:52.491Z,37.62
2023-04-26T11:58:53.057Z,40.62
2023-04-26T12:03:54.289Z,40.51
2023-04-26T12:08:53.625Z,41.33
2023-04-26T12:13:52.728Z,42.46
2023-04-26T12:18:54.518Z,42.18
2023-04-26T12:23:53.688Z,42.36
2023-04-26T12:28:52.611Z,41.51
2023-04-26T12:33:51.702Z,41.57
2023-04-26T12:38:50.808Z,42.56
2023-04-26T12:43:49.597Z,40.88
2023-04-26T12:48:48.498Z,39.81
2023-04-26T12:53:47.314Z,39.02
2023-04-26T12:58:46.551Z,40.11
2023-04-26T13:03:45.887Z,40.00
2023-04-26T13:08:44.891Z,40.34
2023-04-26T13:13:44.872Z,40.36
2023-04-26T13:18:44.028Z,38.44
2023-04-26T13:23:42.915Z,39.00
2023-04-26T13:28:41.949Z,38.32
2023-04-26T13:33:40.973Z,38.42
2023-04-26T13:38:40.587Z,38.57
2023-04-26T13:43:39.465Z,38.77
2023-04-26T13:48:38.244Z,39.61
2023-04-26T13:53:37.256Z,40.53
2023-04-26T13:58:36.708Z,40.38
2023-04-26T14:03:35.845Z,40.29
2023-04-26T14:08:35.587Z,40.48
2023-04-26T14:13:35.792Z,39.54
2023-04-26T14:18:34.763Z,39.40
2023-04-26T14:23:33.618Z,38.90
2023-04-26T14:28:32.614Z,37.97
2023-04-26T14:33:31.564Z,38.50
2023-04-26T14:38:31.557Z,39.52
2023-04-26T14:43:30.568Z,38.84
2023-04-26T14:48:29.352Z,40.04
2023-04-26T14:53:28.175Z,38.68
2023-04-26T14:58:27.395Z,38.64
2023-04-26T15:03:27.231Z,39.02
2023-04-26T15:08:26.728Z,39.12
2023-04-26T15:13:25.580Z,40.34
2023-04-26T15:18:24.537Z,39.89
2023-04-26T15:23:23.703Z,40.13
2023-04-26T15:28:22.521Z,40.15
2023-04-26T15:33:21.331Z,39.84
2023-04-26T15:38:20.201Z,41.03
2023-04-26T15:43:19.457Z,41.21
2023-04-26T15:48:18.371Z,41.23
2023-04-26T15:53:17.401Z,40.44
2023-04-26T15:58:17.139Z,41.04
2023-04-26T16:03:16.993Z,41.05
2023-04-26T16:08:27.731Z,41.18
2023-04-26T16:13:33.744Z,40.78
2023-04-26T16:18:32.910Z,40.18
2023-04-26T16:23:31.824Z,40.83
2023-04-26T16:28:30.768Z,41.43
2023-04-26T16:33:29.863Z,41.83
2023-04-26T16:38:28.718Z,41.48
2023-04-26T16:43:29.057Z,41.43
2023-04-26T16:48:28.225Z,41.10
2023-04-26T16:53:27.627Z,40.86
2023-04-26T16:58:26.683Z,41.17
2023-04-26T17:03:26.090Z,41.26
2023-04-26T17:08:25.946Z,42.14
2023-04-26T17:13:29.242Z,41.71
2023-04-26T17:18:28.154Z,40.96
2023-04-26T17:23:27.802Z,41.60
2023-04-26T17:28:26.831Z,41.80
2023-04-26T17:33:26.094Z,42.18
2023-04-26T17:38:25.005Z,42.09
2023-04-26T17:43:23.867Z,42.62
2023-04-26T17:48:22.941Z,43.23
2023-04-26T17:53:22.624Z,43.21
2023-04-26T17:58:21.922Z,43.63
2023-04-26T18:03:21.198Z,43.20
2023-04-26T18:08:20.569Z,43.47
2023-04-26T18:13:20.308Z,43.27
2023-04-26T18:18:19.341Z,42.99
2023-04-26T18:23:18.475Z,43.56
2023-04-26T18:28:17.425Z,44.09
2023-04-26T18:33:16.375Z,44.29
2023-04-26T18:38:15.493Z,44.89
2023-04-26T18:43:14.513Z,45.30
2023-04-26T18:48:13.377Z,45.00
2023-04-26T18:53:12.140Z,45.59
2023-04-26T18:58:11.404Z,46.42
2023-04-26T19:03:10.317Z,45.71
2023-04-26T19:08:09.428Z,46.92
2023-04-26T19:13:08.318Z,48.53
2023-04-26T19:18:07.364Z,49.19
2023-04-26T19:23:06.506Z,48.93
2023-04-26T19:28:05.260Z,49.05
2023-04-26T19:33:04.201Z,50.14
2023-04-26T19:38:05.348Z,50.68
2023-04-26T19:43:04.189Z,52.08
2023-04-26T19:48:03.385Z,52.60
2023-04-26T19:53:02.351Z,53.03
2023-04-26T19:58:01.326Z,53.28
2023-04-26T20:03:00.390Z,53.59
2023-04-26T20:07:59.332Z,55.26
2023-04-26T20:12:59.366Z,55.77
2023-04-26T20:17:58.311Z,56.68
2023-04-26T20:22:57.167Z,57.64
2023-04-26T20:27:56.753Z,57.19
2023-04-26T20:32:55.665Z,57.49
2023-04-26T20:37:54.599Z,58.55
2023-04-26T20:42:53.387Z,58.29
2023-04-26T20:47:52.267Z,59.21
2023-04-26T20:52:51.428Z,61.47
2023-04-26T20:57:50.442Z,61.74
2023-04-26T21:02:49.406Z,61.95
2023-04-26T21:07:48.443Z,63.56
2023-04-26T21:12:47.406Z,64.37
2023-04-26T21:17:46.245Z,65.26
2023-04-26T21:22:45.053Z,61.70
2023-04-26T21:27:43.823Z,63.74
2023-04-26T21:32:42.738Z,64.27
2023-04-26T21:37:41.725Z,64.14
2023-04-26T21:42:41.218Z,64.79
2023-04-26T21:47:41.111Z,63.34
2023-04-26T21:52:40.527Z,64.83
2023-04-26T21:57:39.444Z,65.25
2023-04-26T22:02:39.190Z,66.22
2023-04-26T22:07:38.406Z,66.41
2023-04-26T22:12:37.207Z,66.37
2023-04-26T22:17:36.031Z,66.48
2023-04-26T22:22:34.886Z,67.63
2023-04-26T22:27:33.677Z,67.63
2023-04-26T22:32:32.556Z,66.39
2023-04-26T22:37:31.617Z,67.07
2023-04-26T22:42:33.552Z,66.45
2023-04-26T22:47:32.385Z,66.52
2023-04-26T22:52:32.266Z,67.77
2023-04-26T22:57:31.637Z,68.42
2023-04-26T23:02:30.613Z,67.85
2023-04-26T23:07:29.478Z,67.62
2023-04-26T23:12:28.418Z,66.82
2023-04-26T23:17:27.662Z,67.12
2023-04-26T23:22:28.297Z,68.10
2023-04-26T23:27:27.092Z,68.50
2023-04-26T23:32:26.435Z,69.14
2023-04-26T23:37:25.301Z,68.55
2023-04-26T23:42:24.130Z,68.69
2023-04-26T23:47:23.020Z,68.42
2023-04-26T23:52:21.891Z,70.79
2023-04-26T23:57:20.949Z,70.43
